Accueil
METAR-TAF:

METAR-TAF

Aéroports :

Payerne, Suisse

Aérodrome de Payerne

latitude: 46-49N, longitude: 006-57E, altitude: 490 m

Observation

Le bulletin a été fait il y a 44 minutes, à 01:50 UTC
Vent 11 kt de sud-ouest
Température 9°C
Humidité 66%
Pression 1009 hPa
Visibilité 10 km ou plus
Quelques nuages à une hauteur de 3300 ft
Ciel couvert à une hauteur de 5400 ft

METAR: LSMP 010150Z AUTO 23011KT 9999NDV FEW033 OVC054 09/03 Q1009 RMK

Heure: 04:34 (02:34 UTC)


TAF: absent

Observations et prévisions météorologiques de plus de 4000 aéroports (messages METAR et TAF).

Les stations disponibles sont représentées par des disques jaunes et rouges sur la carte.

Passer la souris dessus pour voir le nom de la station.

Cliquer dessus pour voir les observations et prévisions météorologiques.

Pour changer de carte: cliquez sur les boutons verts avec une croix noire pour zoomer, sur le bouton vert avec un tiret pour effectuer un zoom arrière, ou sur les flèches vertes pour les cartes adjacentes.


METAR-TAF: